createdAt,value
2018-07-23T00:00:55.828Z,942.00
2018-07-23T00:02:03.934Z,941.98
2018-07-23T00:03:11.989Z,942.01
2018-07-23T00:04:20.160Z,942.02
2018-07-23T00:05:28.127Z,942.00
2018-07-23T00:06:36.185Z,942.02
2018-07-23T00:07:44.242Z,941.99
2018-07-23T00:08:52.318Z,942.00
2018-07-23T00:10:00.473Z,942.01
2018-07-23T00:11:08.458Z,941.99
2018-07-23T00:12:16.519Z,941.99
2018-07-23T00:13:24.885Z,941.95
2018-07-23T00:14:33.066Z,941.99
2018-07-23T00:15:40.737Z,941.93
2018-07-23T00:16:48.986Z,941.98
2018-07-23T00:17:57.056Z,941.96
2018-07-23T00:19:05.136Z,941.95
2018-07-23T00:20:13.267Z,941.98
2018-07-23T00:21:21.262Z,942.01
2018-07-23T00:22:29.567Z,942.00
2018-07-23T00:23:37.374Z,941.97
2018-07-23T00:24:45.424Z,941.98
2018-07-23T00:25:53.552Z,941.96
2018-07-23T00:27:01.587Z,941.93
2018-07-23T00:28:09.702Z,941.95
2018-07-23T00:29:17.704Z,941.91
2018-07-23T00:30:25.744Z,941.98
2018-07-23T00:31:33.888Z,941.93
2018-07-23T00:32:41.907Z,941.92
2018-07-23T00:33:49.956Z,941.94
2018-07-23T00:34:58.136Z,941.90
2018-07-23T00:36:06.101Z,941.87
2018-07-23T00:37:14.173Z,941.89
2018-07-23T00:38:22.247Z,941.85
2018-07-23T00:39:30.306Z,941.85
2018-07-23T00:40:38.351Z,941.89
2018-07-23T00:41:46.516Z,941.85
2018-07-23T00:42:54.545Z,941.88
2018-07-23T00:44:02.563Z,941.89
2018-07-23T00:45:10.626Z,941.88
2018-07-23T00:46:18.693Z,941.89
2018-07-23T00:47:26.895Z,941.87
2018-07-23T00:48:35.136Z,941.86
2018-07-23T00:49:43.220Z,941.88
2018-07-23T00:50:50.950Z,941.88
2018-07-23T00:51:59.027Z,941.86
2018-07-23T00:53:07.450Z,941.87
2018-07-23T00:54:15.145Z,941.87
2018-07-23T00:55:23.526Z,941.85
2018-07-23T00:56:31.298Z,941.87
2018-07-23T00:57:39.456Z,941.85
2018-07-23T00:58:47.412Z,941.85
2018-07-23T00:59:55.723Z,941.83
2018-07-23T01:01:03.746Z,941.86
2018-07-23T01:02:11.808Z,941.85
2018-07-23T01:03:19.983Z,941.85
2018-07-23T01:04:27.946Z,941.83
2018-07-23T01:05:36.034Z,941.85
2018-07-23T01:06:44.408Z,941.85
2018-07-23T01:07:52.146Z,941.83
2018-07-23T01:09:00.302Z,941.85
2018-07-23T01:10:08.292Z,941.84
2018-07-23T01:11:16.679Z,941.82
2018-07-23T01:12:24.625Z,941.83
2018-07-23T01:13:32.790Z,941.89
2018-07-23T01:14:40.846Z,941.88
2018-07-23T01:15:48.819Z,941.86
2018-07-23T01:16:56.974Z,941.89
2018-07-23T01:18:05.263Z,941.86
2018-07-23T01:19:13.028Z,941.87
2018-07-23T01:20:21.378Z,941.84
2018-07-23T01:21:29.369Z,941.87
2018-07-23T01:22:37.413Z,941.83
2018-07-23T01:23:45.461Z,941.83
2018-07-23T01:24:53.546Z,941.84
2018-07-23T01:26:01.668Z,941.86
2018-07-23T01:27:09.688Z,941.86
2018-07-23T01:28:18.007Z,941.85
2018-07-23T01:29:25.884Z,941.84
2018-07-23T01:30:33.882Z,941.83
2018-07-23T01:31:41.992Z,941.81
2018-07-23T01:32:50.018Z,941.83
2018-07-23T01:34:03.352Z,941.81
2018-07-23T01:35:06.338Z,941.78
2018-07-23T01:36:14.459Z,941.78
2018-07-23T01:37:22.469Z,941.77
2018-07-23T01:38:30.764Z,941.77
2018-07-23T01:39:39.850Z,941.74
2018-07-23T01:40:47.097Z,941.76
2018-07-23T01:41:55.235Z,941.78
2018-07-23T01:43:03.214Z,941.75
2018-07-23T01:44:11.280Z,941.76
2018-07-23T01:45:19.431Z,941.77
2018-07-23T01:46:27.411Z,941.72
2018-07-23T01:47:35.501Z,941.73
2018-07-23T01:48:43.541Z,941.75
2018-07-23T01:49:51.602Z,941.74
2018-07-23T01:50:59.877Z,941.69
2018-07-23T01:52:07.944Z,941.72
2018-07-23T01:53:16.049Z,941.74
2018-07-23T01:54:24.066Z,941.72
2018-07-23T01:55:32.151Z,941.75
2018-07-23T01:56:40.211Z,941.71
2018-07-23T01:57:48.374Z,941.72
2018-07-23T01:58:56.347Z,941.74
2018-07-23T02:00:05.035Z,941.75
2018-07-23T02:01:13.188Z,941.76
2018-07-23T02:02:21.159Z,941.79
2018-07-23T02:03:29.229Z,941.79
2018-07-23T02:04:37.292Z,941.81
2018-07-23T02:05:45.319Z,941.82
2018-07-23T02:06:53.423Z,941.84
2018-07-23T02:08:01.584Z,941.86
2018-07-23T02:09:09.554Z,941.85
2018-07-23T02:10:17.942Z,941.82
2018-07-23T02:11:26.723Z,941.83
2018-07-23T02:12:33.846Z,941.80
2018-07-23T02:13:41.829Z,941.79
2018-07-23T02:14:50.246Z,941.84
2018-07-23T02:15:57.986Z,941.81
2018-07-23T02:17:06.064Z,941.83
2018-07-23T02:18:14.147Z,941.79
2018-07-23T02:19:23.207Z,941.77
2018-07-23T02:20:31.293Z,941.78
2018-07-23T02:21:38.324Z,941.77
2018-07-23T02:22:46.757Z,941.74
2018-07-23T02:23:54.412Z,941.78
2018-07-23T02:25:02.552Z,941.76
2018-07-23T02:26:10.535Z,941.75
2018-07-23T02:27:18.612Z,941.73
2018-07-23T02:28:26.765Z,941.73
2018-07-23T02:29:34.836Z,941.75
2018-07-23T02:30:42.797Z,941.72
2018-07-23T02:31:50.866Z,941.73
2018-07-23T02:32:59.001Z,941.70
2018-07-23T02:34:07.108Z,941.68
2018-07-23T02:35:15.266Z,941.73
2018-07-23T02:36:23.658Z,941.69
2018-07-23T02:37:31.403Z,941.66
2018-07-23T02:38:44.920Z,941.68
2018-07-23T02:39:47.742Z,941.67
2018-07-23T02:40:56.153Z,941.66
2018-07-23T02:42:04.279Z,941.67
2018-07-23T02:43:12.396Z,941.70
2018-07-23T02:44:20.497Z,941.68
2018-07-23T02:45:28.475Z,941.69
2018-07-23T02:46:36.802Z,941.74
2018-07-23T02:47:44.744Z,941.72
2018-07-23T02:48:52.683Z,941.77
2018-07-23T02:50:00.841Z,941.76
2018-07-23T02:51:08.883Z,941.77
2018-07-23T02:52:16.874Z,941.76
2018-07-23T02:53:24.942Z,941.76
2018-07-23T02:54:33.009Z,941.76
2018-07-23T02:55:46.510Z,941.73
2018-07-23T02:56:49.119Z,941.76
2018-07-23T02:57:57.405Z,941.78
2018-07-23T02:59:05.455Z,941.79
2018-07-23T03:00:13.532Z,941.79
2018-07-23T03:01:21.652Z,941.76
2018-07-23T03:02:29.775Z,941.79
2018-07-23T03:03:37.780Z,941.81
2018-07-23T03:04:45.777Z,941.82
2018-07-23T03:05:54.964Z,941.84
2018-07-23T03:07:01.921Z,941.83
2018-07-23T03:08:10.002Z,941.79
2018-07-23T03:09:23.316Z,941.80
2018-07-23T03:10:26.226Z,941.81
2018-07-23T03:11:34.283Z,941.82
2018-07-23T03:12:42.254Z,941.85
2018-07-23T03:13:50.610Z,941.86
2018-07-23T03:14:58.390Z,941.87
2018-07-23T03:16:06.447Z,941.85
2018-07-23T03:17:14.610Z,941.88
2018-07-23T03:18:22.678Z,941.86
2018-07-23T03:19:30.653Z,941.87
2018-07-23T03:20:38.728Z,941.86
2018-07-23T03:21:46.902Z,941.90
2018-07-23T03:22:54.956Z,941.91
2018-07-23T03:24:02.919Z,941.94
2018-07-23T03:25:10.987Z,941.90
2018-07-23T03:26:19.294Z,941.98
2018-07-23T03:27:27.436Z,941.94
2018-07-23T03:28:35.369Z,941.95
2018-07-23T03:29:43.460Z,941.99
2018-07-23T03:30:51.543Z,941.97
2018-07-23T03:31:59.576Z,941.97
2018-07-23T03:33:07.748Z,941.97
2018-07-23T03:34:15.692Z,941.99
2018-07-23T03:35:23.784Z,942.00
2018-07-23T03:36:31.843Z,941.96
2018-07-23T03:37:40.011Z,942.03
2018-07-23T03:38:47.976Z,942.00
2018-07-23T03:39:57.055Z,942.03
2018-07-23T03:41:04.129Z,942.06
2018-07-23T03:42:12.174Z,942.02
2018-07-23T03:43:20.350Z,942.11
2018-07-23T03:44:28.316Z,942.12
2018-07-23T03:45:36.377Z,942.11
2018-07-23T03:46:44.458Z,942.14
2018-07-23T03:47:52.625Z,942.15
2018-07-23T03:49:00.669Z,942.20
2018-07-23T03:50:08.644Z,942.23
2018-07-23T03:51:16.717Z,942.21
2018-07-23T03:52:24.783Z,942.22
2018-07-23T03:53:32.843Z,942.24
2018-07-23T03:54:41.055Z,942.25
2018-07-23T03:55:48.979Z,942.25
2018-07-23T03:56:57.044Z,942.26
2018-07-23T03:58:05.124Z,942.30
2018-07-23T03:59:13.232Z,942.31
2018-07-23T04:00:21.672Z,942.32
2018-07-23T04:01:29.322Z,942.34
2018-07-23T04:02:37.482Z,942.33
2018-07-23T04:03:45.425Z,942.35
2018-07-23T04:04:54.979Z,942.37
2018-07-23T04:06:01.587Z,942.36
2018-07-23T04:07:09.663Z,942.40
2018-07-23T04:08:17.818Z,942.35
2018-07-23T04:09:25.753Z,942.40
2018-07-23T04:10:33.936Z,942.42
2018-07-23T04:11:42.968Z,942.45
2018-07-23T04:12:49.987Z,942.44
2018-07-23T04:13:58.047Z,942.44
2018-07-23T04:15:06.107Z,942.44
2018-07-23T04:16:14.282Z,942.45
2018-07-23T04:17:22.288Z,942.45
2018-07-23T04:18:30.906Z,942.46
2018-07-23T04:19:38.373Z,942.46
2018-07-23T04:20:46.445Z,942.49
2018-07-23T04:21:54.561Z,942.50
2018-07-23T04:23:02.687Z,942.52
2018-07-23T04:24:10.647Z,942.52
2018-07-23T04:25:18.712Z,942.56
2018-07-23T04:26:26.775Z,942.56
2018-07-23T04:27:34.865Z,942.52
2018-07-23T04:28:42.907Z,942.56
2018-07-23T04:29:50.986Z,942.57
2018-07-23T04:30:59.102Z,942.54
2018-07-23T04:32:07.448Z,942.55
2018-07-23T04:33:15.209Z,942.55
2018-07-23T04:34:23.514Z,942.55
2018-07-23T04:35:31.313Z,942.58
2018-07-23T04:36:41.075Z,942.55
2018-07-23T04:37:47.534Z,942.55
2018-07-23T04:38:55.482Z,942.56
2018-07-23T04:40:03.569Z,942.58
2018-07-23T04:41:11.633Z,942.58
2018-07-23T04:42:20.041Z,942.58
2018-07-23T04:43:27.825Z,942.61
2018-07-23T04:44:35.820Z,942.65
2018-07-23T04:45:43.905Z,942.67
2018-07-23T04:46:51.979Z,942.69
2018-07-23T04:48:00.600Z,942.74
2018-07-23T04:49:08.111Z,942.73
2018-07-23T04:50:16.157Z,942.71
2018-07-23T04:51:24.238Z,942.71
2018-07-23T04:52:32.723Z,942.72
2018-07-23T04:53:40.386Z,942.69
2018-07-23T04:54:48.776Z,942.73
2018-07-23T04:55:56.505Z,942.71
2018-07-23T04:57:04.682Z,942.69
2018-07-23T04:58:12.827Z,942.69
2018-07-23T04:59:20.699Z,942.72
2018-07-23T05:00:28.769Z,942.71
2018-07-23T05:01:36.839Z,942.69
2018-07-23T05:02:44.909Z,942.72
2018-07-23T05:03:53.418Z,942.70
2018-07-23T05:05:01.039Z,942.75
2018-07-23T05:06:09.322Z,942.72
2018-07-23T05:07:17.165Z,942.72
2018-07-23T05:08:25.211Z,942.72
2018-07-23T05:09:38.586Z,942.77
2018-07-23T05:10:41.434Z,942.78
2018-07-23T05:11:49.470Z,942.80
2018-07-23T05:12:57.525Z,942.79
2018-07-23T05:14:05.598Z,942.81
2018-07-23T05:15:13.687Z,942.81
2018-07-23T05:16:21.717Z,942.80
2018-07-23T05:17:29.781Z,942.80
2018-07-23T05:18:37.836Z,942.82
2018-07-23T05:19:46.076Z,942.80
2018-07-23T05:20:53.987Z,942.80
2018-07-23T05:22:02.036Z,942.79
2018-07-23T05:23:10.124Z,942.80
2018-07-23T05:24:18.222Z,942.81
2018-07-23T05:25:26.343Z,942.81
2018-07-23T05:26:34.313Z,942.77
2018-07-23T05:27:42.636Z,942.81
2018-07-23T05:28:50.656Z,942.84
2018-07-23T05:29:58.721Z,942.85
2018-07-23T05:31:06.829Z,942.82
2018-07-23T05:32:14.860Z,942.82
2018-07-23T05:33:22.928Z,942.87
2018-07-23T05:34:31.299Z,942.87
2018-07-23T05:35:39.150Z,942.90
2018-07-23T05:36:47.122Z,942.92
2018-07-23T05:37:55.212Z,942.88
2018-07-23T05:39:03.649Z,942.92
2018-07-23T05:40:11.744Z,942.91
2018-07-23T05:41:19.863Z,942.88
2018-07-23T05:42:27.935Z,942.91
2018-07-23T05:43:35.949Z,942.87
2018-07-23T05:44:44.003Z,942.92
2018-07-23T05:45:52.074Z,942.93
2018-07-23T05:47:00.242Z,942.95
2018-07-23T05:48:08.420Z,942.93
2018-07-23T05:49:16.482Z,942.92
2018-07-23T05:50:24.813Z,942.96
2018-07-23T05:51:32.724Z,942.93
2018-07-23T05:52:40.740Z,942.91
2018-07-23T05:53:48.751Z,942.96
2018-07-23T05:54:56.829Z,942.96
2018-07-23T05:56:04.884Z,942.93
2018-07-23T05:57:12.964Z,942.94
2018-07-23T05:58:21.130Z,942.94
2018-07-23T05:59:29.104Z,942.94
2018-07-23T06:00:37.352Z,942.99
2018-07-23T06:01:45.259Z,942.96
2018-07-23T06:02:53.374Z,943.00
2018-07-23T06:04:01.374Z,942.98
2018-07-23T06:05:09.443Z,943.00
2018-07-23T06:06:17.519Z,943.00
2018-07-23T06:07:25.648Z,943.03
2018-07-23T06:08:34.007Z,943.00
2018-07-23T06:09:41.718Z,943.03
2018-07-23T06:10:49.759Z,943.04
2018-07-23T06:11:57.850Z,943.06
2018-07-23T06:13:06.005Z,943.08
2018-07-23T06:14:13.982Z,943.10
2018-07-23T06:15:22.065Z,943.11
2018-07-23T06:16:30.115Z,943.06
2018-07-23T06:17:38.242Z,943.09
2018-07-23T06:18:46.452Z,943.05
2018-07-23T06:19:54.561Z,943.08
2018-07-23T06:21:03.999Z,943.07
2018-07-23T06:22:12.148Z,943.12
2018-07-23T06:23:20.220Z,943.11
2018-07-23T06:24:29.233Z,943.11
2018-07-23T06:25:37.718Z,943.15
2018-07-23T06:26:45.313Z,943.18
2018-07-23T06:27:55.917Z,943.22
2018-07-23T06:29:03.789Z,943.23
2018-07-23T06:30:11.785Z,943.28
2018-07-23T06:31:19.839Z,943.26
2018-07-23T06:32:27.902Z,943.29
2018-07-23T06:34:45.714Z,943.36
2018-07-23T06:35:53.713Z,943.38
2018-07-23T06:37:01.804Z,943.36
2018-07-23T06:38:09.951Z,943.37
2018-07-23T06:40:26.031Z,943.40
2018-07-23T06:41:34.049Z,943.43
2018-07-23T06:42:42.118Z,943.44
2018-07-23T06:43:52.394Z,943.45
2018-07-23T06:45:00.557Z,943.47
2018-07-23T06:46:08.593Z,943.45
2018-07-23T06:47:16.609Z,943.45
2018-07-23T06:48:24.666Z,943.42
2018-07-23T06:49:32.731Z,943.44
2018-07-23T06:50:41.127Z,943.43
2018-07-23T06:51:49.081Z,943.43
2018-07-23T06:52:57.249Z,943.44
2018-07-23T06:54:05.321Z,943.49
2018-07-23T06:55:13.282Z,943.48
2018-07-23T06:56:21.406Z,943.47
2018-07-23T06:57:29.515Z,943.50
2018-07-23T06:58:38.022Z,943.48
2018-07-23T06:59:45.743Z,943.48
2018-07-23T07:00:53.854Z,943.52
2018-07-23T07:02:02.010Z,943.52
2018-07-23T07:03:10.258Z,943.56
2018-07-23T07:04:18.075Z,943.58
2018-07-23T07:05:32.382Z,943.58
2018-07-23T07:06:40.455Z,943.57
2018-07-23T07:07:48.967Z,943.61
2018-07-23T07:08:56.598Z,943.61
2018-07-23T07:10:04.665Z,943.61
2018-07-23T07:11:12.775Z,943.62
2018-07-23T07:12:20.952Z,943.64
2018-07-23T07:13:29.978Z,943.60
2018-07-23T07:14:36.937Z,943.65
2018-07-23T07:15:45.012Z,943.68
2018-07-23T07:16:53.297Z,943.67
2018-07-23T07:18:01.452Z,943.64
2018-07-23T07:19:09.420Z,943.67
2018-07-23T07:20:17.526Z,943.69
2018-07-23T07:21:26.570Z,943.70
2018-07-23T07:22:33.722Z,943.68
2018-07-23T07:23:41.817Z,943.76
2018-07-23T07:24:49.778Z,943.74
2018-07-23T07:25:57.848Z,943.72
2018-07-23T07:27:05.885Z,943.69
2018-07-23T07:28:14.087Z,943.68
2018-07-23T07:29:22.056Z,943.69
2018-07-23T07:30:30.132Z,943.72
2018-07-23T07:31:38.193Z,943.70
2018-07-23T07:32:46.263Z,943.73
2018-07-23T07:33:54.488Z,943.74
2018-07-23T07:35:02.416Z,943.68
2018-07-23T07:36:10.483Z,943.68
2018-07-23T07:37:18.537Z,943.66
2018-07-23T07:38:26.712Z,943.68
2018-07-23T07:39:34.779Z,943.63
2018-07-23T07:40:42.755Z,943.66
2018-07-23T07:41:50.820Z,943.60
2018-07-23T07:42:58.892Z,943.71
2018-07-23T07:44:07.060Z,943.69
2018-07-23T07:45:15.032Z,943.75
2018-07-23T07:46:23.141Z,944.00
2018-07-23T07:47:31.175Z,943.84
2018-07-23T07:48:39.258Z,943.71
2018-07-23T07:49:52.757Z,943.72
2018-07-23T07:50:55.574Z,943.63
2018-07-23T07:52:03.657Z,943.64
2018-07-23T07:53:11.725Z,943.71
2018-07-23T07:54:19.804Z,943.66
2018-07-23T07:55:27.969Z,943.75
2018-07-23T07:56:35.913Z,943.84
2018-07-23T07:57:44.019Z,944.02
2018-07-23T07:58:52.090Z,944.37
2018-07-23T08:00:00.169Z,944.73
2018-07-23T08:01:08.332Z,944.22
2018-07-23T08:02:16.570Z,944.23
2018-07-23T08:03:24.720Z,944.02
2018-07-23T08:04:32.745Z,944.22
2018-07-23T08:05:40.707Z,944.37
2018-07-23T08:06:48.836Z,944.84
2018-07-23T08:07:56.858Z,944.70
2018-07-23T08:09:04.924Z,945.58
2018-07-23T08:10:12.997Z,945.09
2018-07-23T08:11:21.176Z,946.05
2018-07-23T08:12:29.163Z,945.07
2018-07-23T08:13:37.210Z,944.89
2018-07-23T08:14:45.248Z,945.78
2018-07-23T08:17:04.139Z,945.57
2018-07-23T08:19:24.730Z,944.49
2018-07-23T08:20:32.470Z,944.48
2018-07-23T08:24:06.387Z,944.61
2018-07-23T08:25:14.495Z,944.73
2018-07-23T08:26:22.665Z,950.56
2018-07-23T08:27:30.764Z,944.58
2018-07-23T08:28:38.671Z,945.81
2018-07-23T08:30:59.308Z,946.18
2018-07-23T08:32:08.513Z,945.83
2018-07-23T08:33:15.812Z,944.31
2018-07-23T08:34:23.862Z,944.39
2018-07-23T08:35:31.948Z,945.21
2018-07-23T08:36:39.991Z,945.84
2018-07-23T08:37:48.159Z,944.61
2018-07-23T08:38:56.149Z,947.04
2018-07-23T08:40:04.218Z,946.57
2018-07-23T08:41:12.303Z,944.94
2018-07-23T08:42:20.475Z,949.01
2018-07-23T08:43:28.623Z,947.46
2018-07-23T08:44:36.802Z,945.18
2018-07-23T08:45:44.634Z,944.55
2018-07-23T08:46:52.663Z,945.66
2018-07-23T08:48:01.095Z,947.27
2018-07-23T08:49:09.139Z,944.82
2018-07-23T08:50:17.079Z,944.88
2018-07-23T08:51:25.222Z,949.78
2018-07-23T08:52:33.276Z,944.94
2018-07-23T08:53:41.416Z,945.10
2018-07-23T08:54:49.736Z,945.87
2018-07-23T08:55:57.667Z,947.91
2018-07-23T08:57:05.718Z,945.43
2018-07-23T08:58:13.840Z,948.03
2018-07-23T08:59:21.976Z,949.04
2018-07-23T09:00:29.955Z,945.26
2018-07-23T09:01:38.036Z,946.60
2018-07-23T09:02:46.113Z,944.84
2018-07-23T09:03:54.536Z,944.61
2018-07-23T09:05:02.400Z,945.35
2018-07-23T09:06:10.346Z,944.74
2018-07-23T09:07:18.404Z,944.72
2018-07-23T09:08:26.481Z,945.39
2018-07-23T09:09:34.556Z,946.56
2018-07-23T09:10:42.714Z,945.21
2018-07-23T09:11:50.735Z,947.46
2018-07-23T09:12:58.873Z,947.74
2018-07-23T09:14:06.855Z,944.71
2018-07-23T09:15:15.022Z,944.56
2018-07-23T09:16:23.009Z,944.61
2018-07-23T09:17:31.078Z,944.73
2018-07-23T09:18:39.167Z,944.52
2018-07-23T09:19:47.245Z,944.51
2018-07-23T09:20:55.373Z,944.39
2018-07-23T09:22:03.413Z,944.39
2018-07-23T09:23:11.458Z,944.37
2018-07-23T09:24:19.533Z,944.36
2018-07-23T09:25:27.815Z,944.37
2018-07-23T09:27:47.090Z,944.41
2018-07-23T09:30:06.353Z,944.42
2018-07-23T09:32:31.641Z,944.74
2018-07-23T09:33:39.663Z,944.78
2018-07-23T09:34:47.726Z,944.74
2018-07-23T09:35:55.868Z,944.79
2018-07-23T09:37:03.919Z,944.48
2018-07-23T09:38:12.263Z,944.43
2018-07-23T09:39:20.021Z,944.32
2018-07-23T09:40:28.105Z,944.34
2018-07-23T09:41:36.160Z,944.32
2018-07-23T09:42:44.328Z,944.28
2018-07-23T09:43:52.408Z,944.31
2018-07-23T09:45:00.398Z,944.36
2018-07-23T09:46:08.460Z,944.42
2018-07-23T09:47:16.523Z,944.32
2018-07-23T09:48:24.704Z,944.34
2018-07-23T09:49:32.691Z,944.32
2018-07-23T09:50:40.749Z,944.37
2018-07-23T09:51:48.824Z,944.45
2018-07-23T09:52:56.980Z,944.58
2018-07-23T09:54:04.949Z,944.71
2018-07-23T09:55:13.034Z,944.80
2018-07-23T09:56:21.098Z,944.82
2018-07-23T09:57:29.218Z,944.55
2018-07-23T09:58:37.297Z,944.53
2018-07-23T09:59:45.307Z,944.51
2018-07-23T10:00:53.640Z,944.52
2018-07-23T10:02:01.552Z,944.49
2018-07-23T10:03:09.765Z,944.50
2018-07-23T10:04:17.613Z,944.53
2018-07-23T10:05:25.653Z,944.46
2018-07-23T10:06:33.757Z,944.43
2018-07-23T10:07:42.035Z,944.45
2018-07-23T10:08:50.199Z,944.50
2018-07-23T10:09:58.154Z,944.44
2018-07-23T10:11:06.229Z,944.48
2018-07-23T10:12:14.351Z,944.48
2018-07-23T10:13:22.474Z,944.46
2018-07-23T10:14:30.496Z,944.46
2018-07-23T10:15:38.514Z,944.41
2018-07-23T10:16:46.606Z,944.37
2018-07-23T10:17:54.679Z,944.35
2018-07-23T10:20:13.527Z,944.36
2018-07-23T10:21:21.526Z,944.49
2018-07-23T10:22:29.573Z,944.72
2018-07-23T10:23:37.651Z,944.75
2018-07-23T10:24:45.702Z,944.83
2018-07-23T10:25:53.793Z,944.80
2018-07-23T10:27:01.853Z,944.78
2018-07-23T10:28:10.020Z,944.76
2018-07-23T10:29:17.989Z,944.79
2018-07-23T10:30:26.159Z,944.80
2018-07-23T10:31:34.144Z,944.76
2018-07-23T10:32:42.223Z,944.70
2018-07-23T10:33:50.354Z,944.61
2018-07-23T10:34:58.362Z,944.56
2018-07-23T10:36:06.541Z,944.45
2018-07-23T10:37:14.512Z,944.40
2018-07-23T10:38:22.985Z,944.37
2018-07-23T10:39:30.651Z,944.33
2018-07-23T10:40:38.732Z,944.32
2018-07-23T10:41:46.851Z,944.31
2018-07-23T10:42:54.884Z,944.27
2018-07-23T10:44:03.313Z,944.25
2018-07-23T10:45:11.025Z,944.22
2018-07-23T10:46:19.091Z,944.29
2018-07-23T10:47:27.209Z,944.33
2018-07-23T10:48:35.219Z,944.36
2018-07-23T10:49:43.312Z,944.43
2018-07-23T10:50:51.691Z,944.43
2018-07-23T10:51:59.457Z,944.44
2018-07-23T10:53:07.628Z,944.47
2018-07-23T10:54:15.573Z,944.49
2018-07-23T10:55:23.678Z,944.57
2018-07-23T10:56:31.749Z,944.67
2018-07-23T10:57:39.908Z,944.61
2018-07-23T10:58:47.997Z,944.60
2018-07-23T10:59:56.093Z,944.57
2018-07-23T11:01:04.083Z,944.54
2018-07-23T11:02:12.104Z,944.45
2018-07-23T11:03:20.270Z,944.45
2018-07-23T11:04:28.253Z,944.48
2018-07-23T11:05:36.373Z,944.59
2018-07-23T11:06:44.418Z,944.64
2018-07-23T11:07:52.561Z,944.59
2018-07-23T11:09:00.855Z,944.64
2018-07-23T11:10:08.630Z,944.55
2018-07-23T11:11:16.783Z,944.54
2018-07-23T11:12:24.769Z,944.44
2018-07-23T11:13:32.829Z,944.45
2018-07-23T11:14:40.914Z,944.48
2018-07-23T11:15:49.084Z,944.50
2018-07-23T11:16:57.045Z,944.54
2018-07-23T11:18:05.238Z,944.54
2018-07-23T11:19:13.227Z,944.61
2018-07-23T11:20:21.276Z,944.59
2018-07-23T11:21:29.347Z,944.56
2018-07-23T11:22:37.515Z,944.58
2018-07-23T11:23:45.486Z,944.56
2018-07-23T11:24:53.606Z,944.59
2018-07-23T11:26:01.647Z,944.56
2018-07-23T11:27:09.766Z,944.49
2018-07-23T11:28:18.153Z,944.48
2018-07-23T11:29:25.881Z,944.52
2018-07-23T11:30:34.199Z,944.50
2018-07-23T11:31:42.142Z,944.45
2018-07-23T11:32:50.081Z,944.45
2018-07-23T11:33:58.194Z,944.42
2018-07-23T11:35:06.432Z,944.46
2018-07-23T11:36:14.513Z,944.46
2018-07-23T11:37:22.581Z,944.40
2018-07-23T11:38:30.656Z,944.36
2018-07-23T11:39:38.808Z,944.31
2018-07-23T11:40:46.802Z,944.32
2018-07-23T11:41:54.876Z,944.31
2018-07-23T11:43:03.198Z,944.43
2018-07-23T11:44:11.013Z,944.37
2018-07-23T11:45:19.154Z,944.32
2018-07-23T11:46:27.159Z,944.24
2018-07-23T11:47:35.574Z,944.18
2018-07-23T11:48:43.302Z,944.12
2018-07-23T11:49:51.523Z,944.15
2018-07-23T11:50:59.498Z,944.15
2018-07-23T11:52:14.356Z,944.19
2018-07-23T11:53:15.585Z,944.19
2018-07-23T11:54:23.871Z,944.20
2018-07-23T11:55:32.254Z,944.22
2018-07-23T11:56:40.222Z,944.22
2018-07-23T11:57:48.301Z,944.21
2018-07-23T11:58:56.363Z,944.20
2018-07-23T12:00:04.457Z,944.18
2018-07-23T12:01:12.602Z,944.18
2018-07-23T12:02:20.572Z,944.20
2018-07-23T12:03:28.686Z,944.29
2018-07-23T12:04:36.901Z,944.24
2018-07-23T12:05:45.070Z,944.21
2018-07-23T12:06:52.929Z,944.22
2018-07-23T12:08:00.953Z,944.27
2018-07-23T12:09:09.041Z,944.28
2018-07-23T12:10:17.095Z,944.19
2018-07-23T12:11:25.458Z,944.16
2018-07-23T12:12:33.446Z,944.22
2018-07-23T12:13:42.732Z,944.26
2018-07-23T12:14:51.855Z,944.21
2018-07-23T12:15:58.881Z,944.19
2018-07-23T12:17:07.081Z,944.24
2018-07-23T12:18:15.089Z,944.21
2018-07-23T12:19:23.077Z,944.18
2018-07-23T12:20:31.156Z,944.19
2018-07-23T12:21:39.336Z,944.22
2018-07-23T12:22:47.460Z,944.22
2018-07-23T12:23:55.409Z,944.19
2018-07-23T12:25:03.449Z,944.16
2018-07-23T12:26:11.833Z,944.16
2018-07-23T12:27:19.608Z,944.22
2018-07-23T12:28:27.690Z,944.19
2018-07-23T12:30:50.844Z,944.18
2018-07-23T12:31:58.768Z,944.20
2018-07-23T12:33:06.938Z,944.15
2018-07-23T12:34:14.958Z,944.16
2018-07-23T12:35:22.990Z,944.17
2018-07-23T12:36:31.059Z,944.13
2018-07-23T12:37:39.275Z,944.15
2018-07-23T12:38:47.210Z,944.15
2018-07-23T12:39:55.597Z,944.14
2018-07-23T12:41:03.354Z,944.15
2018-07-23T12:42:11.681Z,944.13
2018-07-23T12:43:19.608Z,944.10
2018-07-23T12:44:27.573Z,944.14
2018-07-23T12:45:35.626Z,944.16
2018-07-23T12:46:43.717Z,944.18
2018-07-23T12:47:52.093Z,944.14
2018-07-23T12:49:00.080Z,944.12
2018-07-23T12:50:08.240Z,944.13
2018-07-23T12:51:16.235Z,944.16
2018-07-23T12:52:24.493Z,944.24
2018-07-23T12:53:32.677Z,944.25
2018-07-23T12:54:40.647Z,944.30
2018-07-23T12:55:48.728Z,944.26
2018-07-23T12:56:56.797Z,944.28
2018-07-23T12:58:04.886Z,944.26
2018-07-23T12:59:13.039Z,944.23
2018-07-23T13:00:21.023Z,944.25
2018-07-23T13:01:29.101Z,944.26
2018-07-23T13:02:37.172Z,944.28
2018-07-23T13:03:45.483Z,944.31
2018-07-23T13:04:53.382Z,944.33
2018-07-23T13:06:01.485Z,944.33
2018-07-23T13:07:09.461Z,944.32
2018-07-23T13:08:17.579Z,944.33
2018-07-23T13:09:25.598Z,944.32
2018-07-23T13:10:34.031Z,944.26
2018-07-23T13:11:41.961Z,944.26
2018-07-23T13:12:50.298Z,944.25
2018-07-23T13:13:58.326Z,944.20
2018-07-23T13:15:06.743Z,944.18
2018-07-23T13:16:14.673Z,944.18
2018-07-23T13:17:22.742Z,944.17
2018-07-23T13:18:31.029Z,944.16
2018-07-23T13:19:39.097Z,944.08
2018-07-23T13:20:47.284Z,944.05
2018-07-23T13:21:55.311Z,944.05
2018-07-23T13:24:15.650Z,944.14
2018-07-23T13:25:23.693Z,944.15
2018-07-23T13:26:31.884Z,944.12
2018-07-23T13:27:39.833Z,944.16
2018-07-23T13:28:47.952Z,944.16
2018-07-23T13:29:56.231Z,944.11
2018-07-23T13:31:04.078Z,944.12
2018-07-23T13:32:12.243Z,944.17
2018-07-23T13:33:20.676Z,944.17
2018-07-23T13:34:28.354Z,944.26
2018-07-23T13:35:36.385Z,944.20
2018-07-23T13:36:44.442Z,944.15
2018-07-23T13:37:52.765Z,944.17
2018-07-23T13:39:00.598Z,944.14
2018-07-23T13:40:08.657Z,944.15
2018-07-23T13:41:16.999Z,944.15
2018-07-23T13:42:24.907Z,944.12
2018-07-23T13:43:32.876Z,944.11
2018-07-23T13:44:40.964Z,944.11
2018-07-23T13:45:49.044Z,944.10
2018-07-23T13:46:57.106Z,944.13
2018-07-23T13:48:05.277Z,944.10
2018-07-23T13:49:13.356Z,944.12
2018-07-23T13:50:21.309Z,944.13
2018-07-23T13:51:29.642Z,944.10
2018-07-23T13:52:37.598Z,944.09
2018-07-23T13:53:45.559Z,944.08
2018-07-23T13:54:53.592Z,944.05
2018-07-23T13:56:01.676Z,944.07
2018-07-23T13:57:09.752Z,944.07
2018-07-23T13:58:17.826Z,944.08
2018-07-23T13:59:25.927Z,944.06
2018-07-23T14:00:33.982Z,944.03
2018-07-23T14:01:42.033Z,944.00
2018-07-23T14:02:50.128Z,943.99
2018-07-23T14:03:58.302Z,943.99
2018-07-23T14:05:06.266Z,943.97
2018-07-23T14:06:14.331Z,943.99
2018-07-23T14:07:22.507Z,943.96
2018-07-23T14:08:30.746Z,943.95
2018-07-23T14:09:38.648Z,943.91
2018-07-23T14:10:46.640Z,943.90
2018-07-23T14:11:54.702Z,943.91
2018-07-23T14:13:02.980Z,943.91
2018-07-23T14:14:11.059Z,943.90
2018-07-23T14:15:19.226Z,943.86
2018-07-23T14:16:27.201Z,943.81
2018-07-23T14:17:35.240Z,943.78
2018-07-23T14:18:43.599Z,943.78
2018-07-23T14:19:52.489Z,943.75
2018-07-23T14:20:59.604Z,943.72
2018-07-23T14:22:07.570Z,943.71
2018-07-23T14:23:15.720Z,943.75
2018-07-23T14:24:23.715Z,943.72
2018-07-23T14:25:31.780Z,943.76